sensor_id;sensor_type;location;lat;lon;timestamp;pressure;altitude;pressure_sealevel;temperature;humidity
5522;BME280;2783;48.730;8.006;2023-03-20T00:01:09;100392.97;;;12.08;100.00
5522;BME280;2783;48.730;8.006;2023-03-20T00:03:35;100403.69;;;12.07;100.00
5522;BME280;2783;48.730;8.006;2023-03-20T00:06:01;100402.00;;;12.04;100.00
5522;BME280;2783;48.730;8.006;2023-03-20T00:08:26;100392.19;;;12.05;100.00
5522;BME280;2783;48.730;8.006;2023-03-20T00:10:52;100409.03;;;12.07;100.00
5522;BME280;2783;48.730;8.006;2023-03-20T00:13:20;100402.91;;;12.03;100.00
5522;BME280;2783;48.730;8.006;2023-03-20T00:15:48;100408.31;;;12.02;100.00
5522;BME280;2783;48.730;8.006;2023-03-20T00:18:15;100408.25;;;12.03;100.00
5522;BME280;2783;48.730;8.006;2023-03-20T00:20:43;100406.63;;;11.99;100.00
5522;BME280;2783;48.730;8.006;2023-03-20T00:23:08;100411.13;;;11.97;100.00
5522;BME280;2783;48.730;8.006;2023-03-20T00:25:33;100408.34;;;12.00;100.00
5522;BME280;2783;48.730;8.006;2023-03-20T00:28:22;100411.03;;;12.00;100.00
5522;BME280;2783;48.730;8.006;2023-03-20T00:30:45;100406.63;;;11.99;100.00
5522;BME280;2783;48.730;8.006;2023-03-20T00:33:10;100418.09;;;12.01;100.00
5522;BME280;2783;48.730;8.006;2023-03-20T00:35:35;100411.13;;;11.97;100.00
5522;BME280;2783;48.730;8.006;2023-03-20T00:38:01;100416.56;;;11.94;100.00
5522;BME280;2783;48.730;8.006;2023-03-20T00:40:28;100423.72;;;11.92;100.00
5522;BME280;2783;48.730;8.006;2023-03-20T00:43:03;100422.88;;;11.90;100.00
5522;BME280;2783;48.730;8.006;2023-03-20T00:45:29;100419.41;;;11.88;100.00
5522;BME280;2783;48.730;8.006;2023-03-20T00:47:55;100413.25;;;11.86;100.00
5522;BME280;2783;48.730;8.006;2023-03-20T00:50:25;100421.16;;;11.89;100.00
5522;BME280;2783;48.730;8.006;2023-03-20T00:52:51;100421.97;;;11.91;100.00
5522;BME280;2783;48.730;8.006;2023-03-20T00:55:21;100422.78;;;11.93;100.00
5522;BME280;2783;48.730;8.006;2023-03-20T00:57:48;100420.22;;;11.90;100.00
5522;BME280;2783;48.730;8.006;2023-03-20T01:02:43;100423.81;;;11.89;100.00
5522;BME280;2783;48.730;8.006;2023-03-20T01:05:08;100423.72;;;11.92;100.00
5522;BME280;2783;48.730;8.006;2023-03-20T01:07:33;100422.25;;;11.82;100.00
5522;BME280;2783;48.730;8.006;2023-03-20T01:09:59;100423.19;;;11.81;100.00
5522;BME280;2783;48.730;8.006;2023-03-20T01:12:24;100416.94;;;11.82;100.00
5522;BME280;2783;48.730;8.006;2023-03-20T01:14:51;100423.09;;;11.84;100.00
5522;BME280;2783;48.730;8.006;2023-03-20T01:17:18;100424.88;;;11.83;100.00
5522;BME280;2783;48.730;8.006;2023-03-20T01:19:43;100408.78;;;11.86;100.00
5522;BME280;2783;48.730;8.006;2023-03-20T01:22:09;100423.81;;;11.89;100.00
5522;BME280;2783;48.730;8.006;2023-03-20T01:24:34;100431.00;;;11.87;100.00
5522;BME280;2783;48.730;8.006;2023-03-20T01:26:59;100431.00;;;11.87;100.00
5522;BME280;2783;48.730;8.006;2023-03-20T01:29:28;100428.28;;;11.88;100.00
5522;BME280;2783;48.730;8.006;2023-03-20T01:31:54;100431.72;;;11.92;100.00
5522;BME280;2783;48.730;8.006;2023-03-20T01:34:20;100429.25;;;11.86;100.00
5522;BME280;2783;48.730;8.006;2023-03-20T01:39:14;100440.78;;;11.86;100.00
5522;BME280;2783;48.730;8.006;2023-03-20T01:41:39;100445.25;;;11.86;100.00
5522;BME280;2783;48.730;8.006;2023-03-20T01:47:00;100439.13;;;11.82;100.00
5522;BME280;2783;48.730;8.006;2023-03-20T01:51:52;100443.47;;;11.85;100.00
5522;BME280;2783;48.730;8.006;2023-03-20T01:54:20;100443.53;;;11.83;100.00
5522;BME280;2783;48.730;8.006;2023-03-20T01:56:48;100440.09;;;11.80;100.00
5522;BME280;2783;48.730;8.006;2023-03-20T01:59:25;100438.16;;;11.85;100.00
5522;BME280;2783;48.730;8.006;2023-03-20T02:01:52;100442.75;;;11.80;100.00
5522;BME280;2783;48.730;8.006;2023-03-20T02:04:17;100443.63;;;11.80;100.00
5522;BME280;2783;48.730;8.006;2023-03-20T02:06:47;100455.25;;;11.78;100.00
5522;BME280;2783;48.730;8.006;2023-03-20T02:09:13;100448.13;;;11.78;100.00
5522;BME280;2783;48.730;8.006;2023-03-20T02:11:39;100456.97;;;11.80;100.00
5522;BME280;2783;48.730;8.006;2023-03-20T02:14:05;100450.66;;;11.83;100.00
5522;BME280;2783;48.730;8.006;2023-03-20T02:16:32;100452.50;;;11.81;100.00
5522;BME280;2783;48.730;8.006;2023-03-20T02:18:57;100451.59;;;11.82;100.00
5522;BME280;2783;48.730;8.006;2023-03-20T02:40:11;100466.84;;;11.77;100.00
5522;BME280;2783;48.730;8.006;2023-03-20T02:45:20;100473.09;;;11.76;100.00
5522;BME280;2783;48.730;8.006;2023-03-20T02:48:10;100478.38;;;11.77;100.00
5522;BME280;2783;48.730;8.006;2023-03-20T02:56:26;100470.44;;;11.76;100.00
5522;BME280;2783;48.730;8.006;2023-03-20T02:58:57;100461.66;;;11.72;100.00
5522;BME280;2783;48.730;8.006;2023-03-20T03:01:28;100474.16;;;11.70;100.00
5522;BME280;2783;48.730;8.006;2023-03-20T03:06:39;100480.56;;;11.62;100.00
5522;BME280;2783;48.730;8.006;2023-03-20T03:09:41;100472.53;;;11.65;100.00
5522;BME280;2783;48.730;8.006;2023-03-20T03:11:59;100477.00;;;11.63;100.00
5522;BME280;2783;48.730;8.006;2023-03-20T03:17:07;100484.13;;;11.64;100.00
5522;BME280;2783;48.730;8.006;2023-03-20T03:19:34;100479.63;;;11.66;100.00
5522;BME280;2783;48.730;8.006;2023-03-20T03:22:00;100472.59;;;11.62;100.00
5522;BME280;2783;48.730;8.006;2023-03-20T03:24:36;100488.66;;;11.59;100.00
5522;BME280;2783;48.730;8.006;2023-03-20T03:27:03;100485.03;;;11.61;100.00
5522;BME280;2783;48.730;8.006;2023-03-20T03:29:35;100477.91;;;11.63;100.00
5522;BME280;2783;48.730;8.006;2023-03-20T03:32:04;100486.84;;;11.61;100.00
5522;BME280;2783;48.730;8.006;2023-03-20T03:34:31;100485.06;;;11.60;100.00
5522;BME280;2783;48.730;8.006;2023-03-20T03:37:01;100486.94;;;11.58;100.00
5522;BME280;2783;48.730;8.006;2023-03-20T03:42:24;100472.69;;;11.59;100.00
5522;BME280;2783;48.730;8.006;2023-03-20T03:47:53;100476.19;;;11.61;100.00
5522;BME280;2783;48.730;8.006;2023-03-20T03:50:23;100476.22;;;11.59;100.00
5522;BME280;2783;48.730;8.006;2023-03-20T03:52:50;100474.34;;;11.63;100.00
5522;BME280;2783;48.730;8.006;2023-03-20T03:55:18;100478.94;;;11.58;100.00
5522;BME280;2783;48.730;8.006;2023-03-20T03:57:48;100480.69;;;11.59;100.00
5522;BME280;2783;48.730;8.006;2023-03-20T04:00:16;100482.38;;;11.61;100.00
5522;BME280;2783;48.730;8.006;2023-03-20T04:02:43;100477.91;;;11.62;100.00
5522;BME280;2783;48.730;8.006;2023-03-20T04:05:10;100485.00;;;11.63;100.00
5522;BME280;2783;48.730;8.006;2023-03-20T04:07:36;100477.00;;;11.64;100.00
5522;BME280;2783;48.730;8.006;2023-03-20T04:10:01;100482.34;;;11.64;100.00
5522;BME280;2783;48.730;8.006;2023-03-20T04:14:51;100485.91;;;11.63;100.00
5522;BME280;2783;48.730;8.006;2023-03-20T04:17:17;100494.72;;;11.65;100.00
5522;BME280;2783;48.730;8.006;2023-03-20T04:19:42;100495.66;;;11.64;100.00
5522;BME280;2783;48.730;8.006;2023-03-20T04:22:07;100500.09;;;11.64;100.00
5522;BME280;2783;48.730;8.006;2023-03-20T04:24:32;100503.66;;;11.64;100.00
5522;BME280;2783;48.730;8.006;2023-03-20T04:26:58;100510.78;;;11.62;100.00
5522;BME280;2783;48.730;8.006;2023-03-20T04:29:23;100508.09;;;11.64;100.00
5522;BME280;2783;48.730;8.006;2023-03-20T04:31:48;100518.66;;;11.67;100.00
5522;BME280;2783;48.730;8.006;2023-03-20T04:34:14;100518.66;;;11.67;100.00
5522;BME280;2783;48.730;8.006;2023-03-20T04:36:40;100520.47;;;11.65;100.00
5522;BME280;2783;48.730;8.006;2023-03-20T04:39:05;100518.72;;;11.65;100.00
5522;BME280;2783;48.730;8.006;2023-03-20T04:41:31;100503.66;;;11.64;100.00
5522;BME280;2783;48.730;8.006;2023-03-20T04:43:56;100503.78;;;11.58;100.00
5522;BME280;2783;48.730;8.006;2023-03-20T04:46:21;100500.38;;;11.53;100.00
5522;BME280;2783;48.730;8.006;2023-03-20T04:48:47;100494.19;;;11.53;100.00
5522;BME280;2783;48.730;8.006;2023-03-20T04:51:12;100494.25;;;11.50;100.00
5522;BME280;2783;48.730;8.006;2023-03-20T04:53:37;100500.47;;;11.50;100.00
5522;BME280;2783;48.730;8.006;2023-03-20T04:56:02;100504.94;;;11.48;100.00
5522;BME280;2783;48.730;8.006;2023-03-20T04:58:28;100499.50;;;11.53;100.00
5522;BME280;2783;48.730;8.006;2023-03-20T05:00:53;100500.31;;;11.56;100.00
5522;BME280;2783;48.730;8.006;2023-03-20T05:03:18;100499.22;;;11.62;100.00
5522;BME280;2783;48.730;8.006;2023-03-20T05:05:43;100494.78;;;11.62;100.00
5522;BME280;2783;48.730;8.006;2023-03-20T05:08:09;100502.75;;;11.64;100.00
5522;BME280;2783;48.730;8.006;2023-03-20T05:10:35;100514.31;;;11.64;100.00
5522;BME280;2783;48.730;8.006;2023-03-20T05:13:00;100508.09;;;11.64;100.00
5522;BME280;2783;48.730;8.006;2023-03-20T05:15:25;100509.00;;;11.63;100.00
5522;BME280;2783;48.730;8.006;2023-03-20T05:17:50;100505.38;;;11.65;100.00
5522;BME280;2783;48.730;8.006;2023-03-20T05:20:16;100502.66;;;11.67;100.00
5522;BME280;2783;48.730;8.006;2023-03-20T05:22:42;100507.13;;;11.66;100.00
5522;BME280;2783;48.730;8.006;2023-03-20T05:25:07;100517.88;;;11.63;100.00
5522;BME280;2783;48.730;8.006;2023-03-20T05:27:32;100508.16;;;11.61;100.00
5522;BME280;2783;48.730;8.006;2023-03-20T05:29:58;100508.16;;;11.61;100.00
5522;BME280;2783;48.730;8.006;2023-03-20T05:32:23;100510.88;;;11.59;100.00
5522;BME280;2783;48.730;8.006;2023-03-20T05:34:48;100508.25;;;11.58;100.00
5522;BME280;2783;48.730;8.006;2023-03-20T05:37:14;100508.19;;;11.59;100.00
5522;BME280;2783;48.730;8.006;2023-03-20T05:39:39;100503.69;;;11.61;100.00
5522;BME280;2783;48.730;8.006;2023-03-20T05:42:05;100509.97;;;11.59;100.00
5522;BME280;2783;48.730;8.006;2023-03-20T05:44:30;100512.00;;;11.51;100.00
5522;BME280;2783;48.730;8.006;2023-03-20T05:46:56;100515.75;;;11.44;100.00
5522;BME280;2783;48.730;8.006;2023-03-20T05:49:21;100515.09;;;11.36;100.00
5522;BME280;2783;48.730;8.006;2023-03-20T05:51:46;100520.47;;;11.34;100.00
5522;BME280;2783;48.730;8.006;2023-03-20T05:54:11;100527.44;;;11.38;100.00
5522;BME280;2783;48.730;8.006;2023-03-20T05:56:37;100524.06;;;11.33;100.00
5522;BME280;2783;48.730;8.006;2023-03-20T05:59:02;100526.72;;;11.32;100.00
5522;BME280;2783;48.730;8.006;2023-03-20T06:01:27;100526.56;;;11.38;100.00
5522;BME280;2783;48.730;8.006;2023-03-20T06:03:53;100528.31;;;11.39;100.00
5522;BME280;2783;48.730;8.006;2023-03-20T06:06:18;100534.34;;;11.45;100.00
5522;BME280;2783;48.730;8.006;2023-03-20T06:08:43;100540.31;;;11.53;100.00
5522;BME280;2783;48.730;8.006;2023-03-20T06:11:09;100540.03;;;11.65;100.00
5522;BME280;2783;48.730;8.006;2023-03-20T06:13:34;100546.78;;;11.77;100.00
5522;BME280;2783;48.730;8.006;2023-03-20T06:15:59;100545.69;;;11.84;100.00
5522;BME280;2783;48.730;8.006;2023-03-20T06:18:25;100544.50;;;11.94;100.00
5522;BME280;2783;48.730;8.006;2023-03-20T06:20:54;100545.22;;;12.01;100.00
5522;BME280;2783;48.730;8.006;2023-03-20T06:23:20;100552.97;;;12.08;100.00
5522;BME280;2783;48.730;8.006;2023-03-20T06:25:45;100564.66;;;12.04;100.00
5522;BME280;2783;48.730;8.006;2023-03-20T06:28:10;100576.13;;;12.06;100.00
5522;BME280;2783;48.730;8.006;2023-03-20T06:30:36;100563.63;;;12.08;100.00
5522;BME280;2783;48.730;8.006;2023-03-20T06:33:02;100574.25;;;12.10;100.00
5522;BME280;2783;48.730;8.006;2023-03-20T06:35:27;100570.94;;;12.02;100.00
5522;BME280;2783;48.730;8.006;2023-03-20T06:37:55;100578.09;;;12.00;100.00
5522;BME280;2783;48.730;8.006;2023-03-20T06:40:20;100572.97;;;11.93;100.00
5522;BME280;2783;48.730;8.006;2023-03-20T06:42:46;100577.59;;;11.87;100.00
5522;BME280;2783;48.730;8.006;2023-03-20T06:45:11;100582.94;;;11.87;100.00
5522;BME280;2783;48.730;8.006;2023-03-20T06:47:37;100585.63;;;11.85;100.00
5522;BME280;2783;48.730;8.006;2023-03-20T06:50:02;100594.31;;;11.92;100.00
5522;BME280;2783;48.730;8.006;2023-03-20T06:52:27;100595.38;;;11.86;100.00
5522;BME280;2783;48.730;8.006;2023-03-20T06:54:53;100588.13;;;11.91;100.00
5522;BME280;2783;48.730;8.006;2023-03-20T06:57:20;100598.72;;;11.93;100.00
5522;BME280;2783;48.730;8.006;2023-03-20T06:59:46;100598.63;;;11.96;100.00
5522;BME280;2783;48.730;8.006;2023-03-20T07:02:11;100603.97;;;11.96;100.00
5522;BME280;2783;48.730;8.006;2023-03-20T07:04:37;100607.38;;;12.01;100.00
5522;BME280;2783;48.730;8.006;2023-03-20T07:07:02;100608.97;;;12.08;100.00
5522;BME280;2783;48.730;8.006;2023-03-20T07:09:28;100607.31;;;12.04;100.00
5522;BME280;2783;48.730;8.006;2023-03-20T07:11:53;100608.59;;;12.20;100.00
5522;BME280;2783;48.730;8.006;2023-03-20T07:14:18;100616.16;;;12.35;100.00
5522;BME280;2783;48.730;8.006;2023-03-20T07:16:44;100614.03;;;12.46;100.00
5522;BME280;2783;48.730;8.006;2023-03-20T07:19:09;100608.38;;;12.55;99.07
5522;BME280;2783;48.730;8.006;2023-03-20T07:21:35;100602.88;;;12.61;98.25
5522;BME280;2783;48.730;8.006;2023-03-20T07:24:00;100611.41;;;12.72;97.26
5522;BME280;2783;48.730;8.006;2023-03-20T07:26:25;100601.56;;;12.74;96.70
5522;BME280;2783;48.730;8.006;2023-03-20T07:28:51;100608.50;;;12.80;95.88
5522;BME280;2783;48.730;8.006;2023-03-20T07:31:20;100598.94;;;12.73;94.46
5522;BME280;2783;48.730;8.006;2023-03-20T07:33:46;100593.78;;;12.67;94.29
5522;BME280;2783;48.730;8.006;2023-03-20T07:36:11;100595.88;;;12.57;94.14
5522;BME280;2783;48.730;8.006;2023-03-20T07:38:36;100593.09;;;12.62;93.77
5522;BME280;2783;48.730;8.006;2023-03-20T07:41:01;100590.41;;;12.62;92.68
5522;BME280;2783;48.730;8.006;2023-03-20T07:43:27;100588.50;;;12.65;90.96
5522;BME280;2783;48.730;8.006;2023-03-20T07:45:52;100592.56;;;12.77;90.53
5522;BME280;2783;48.730;8.006;2023-03-20T07:48:17;100599.25;;;12.90;89.35
5522;BME280;2783;48.730;8.006;2023-03-20T07:50:43;100600.44;;;13.09;88.78
5522;BME280;2783;48.730;8.006;2023-03-20T07:53:08;100593.63;;;13.51;87.76
5522;BME280;2783;48.730;8.006;2023-03-20T07:55:33;100597.97;;;14.49;85.19
5522;BME280;2783;48.730;8.006;2023-03-20T07:57:58;100584.09;;;15.66;81.70
5522;BME280;2783;48.730;8.006;2023-03-20T08:00:24;100582.47;;;17.12;74.30
5522;BME280;2783;48.730;8.006;2023-03-20T08:02:49;100586.09;;;18.62;64.43
5522;BME280;2783;48.730;8.006;2023-03-20T08:05:15;100581.38;;;19.57;56.19
5522;BME280;2783;48.730;8.006;2023-03-20T08:07:40;100584.38;;;19.67;54.39
5522;BME280;2783;48.730;8.006;2023-03-20T08:10:05;100592.78;;;20.34;53.55
5522;BME280;2783;48.730;8.006;2023-03-20T08:12:31;100607.09;;;20.76;51.49
5522;BME280;2783;48.730;8.006;2023-03-20T08:14:56;100595.47;;;21.03;49.87
5522;BME280;2783;48.730;8.006;2023-03-20T08:17:21;100600.41;;;21.49;48.26
5522;BME280;2783;48.730;8.006;2023-03-20T08:19:46;100601.13;;;21.78;47.57
5522;BME280;2783;48.730;8.006;2023-03-20T08:22:12;100611.47;;;21.59;47.11
5522;BME280;2783;48.730;8.006;2023-03-20T08:24:37;100609.47;;;21.48;46.68
5522;BME280;2783;48.730;8.006;2023-03-20T08:27:02;100612.72;;;20.59;47.59
5522;BME280;2783;48.730;8.006;2023-03-20T08:29:28;100619.78;;;20.34;49.35
5522;BME280;2783;48.730;8.006;2023-03-20T08:31:53;100616.84;;;20.79;50.04
5522;BME280;2783;48.730;8.006;2023-03-20T08:34:20;100621.88;;;21.26;48.14
5522;BME280;2783;48.730;8.006;2023-03-20T08:36:45;100620.25;;;21.62;47.46
5522;BME280;2783;48.730;8.006;2023-03-20T08:39:10;100622.72;;;21.00;47.96
5522;BME280;2783;48.730;8.006;2023-03-20T08:41:36;100619.72;;;21.04;49.11
5522;BME280;2783;48.730;8.006;2023-03-20T08:44:03;100615.66;;;21.38;47.71
5522;BME280;2783;48.730;8.006;2023-03-20T08:46:28;100622.56;;;21.42;48.37
5522;BME280;2783;48.730;8.006;2023-03-20T08:48:53;100625.44;;;20.85;47.43
5522;BME280;2783;48.730;8.006;2023-03-20T08:51:19;100621.63;;;20.19;48.51
5522;BME280;2783;48.730;8.006;2023-03-20T08:53:44;100628.72;;;20.06;50.62
5522;BME280;2783;48.730;8.006;2023-03-20T08:56:09;100627.09;;;19.60;51.52
5522;BME280;2783;48.730;8.006;2023-03-20T08:58:36;100635.31;;;18.81;52.76
5522;BME280;2783;48.730;8.006;2023-03-20T09:01:05;100629.06;;;17.82;52.23
5522;BME280;2783;48.730;8.006;2023-03-20T09:03:30;100623.16;;;17.76;55.29
5522;BME280;2783;48.730;8.006;2023-03-20T09:05:56;100632.38;;;17.53;57.18
5522;BME280;2783;48.730;8.006;2023-03-20T09:08:21;100633.13;;;17.21;59.42
5522;BME280;2783;48.730;8.006;2023-03-20T09:10:47;100625.41;;;16.78;60.30
5522;BME280;2783;48.730;8.006;2023-03-20T09:13:15;100623.69;;;16.38;61.55
5522;BME280;2783;48.730;8.006;2023-03-20T09:15:41;100627.25;;;16.20;64.30
5522;BME280;2783;48.730;8.006;2023-03-20T09:18:06;100634.19;;;16.06;63.78
5522;BME280;2783;48.730;8.006;2023-03-20T09:20:31;100637.31;;;15.95;64.29
5522;BME280;2783;48.730;8.006;2023-03-20T09:22:57;100630.69;;;16.04;66.42
5522;BME280;2783;48.730;8.006;2023-03-20T09:25:22;100634.72;;;15.94;65.24
5522;BME280;2783;48.730;8.006;2023-03-20T09:27:51;100639.50;;;15.87;65.05
5522;BME280;2783;48.730;8.006;2023-03-20T09:30:19;100636.63;;;15.71;66.09
5522;BME280;2783;48.730;8.006;2023-03-20T09:32:44;100635.59;;;15.54;66.17
5522;BME280;2783;48.730;8.006;2023-03-20T09:35:09;100645.34;;;14.92;65.75
5522;BME280;2783;48.730;8.006;2023-03-20T09:37:35;100657.03;;;15.11;67.97
5522;BME280;2783;48.730;8.006;2023-03-20T09:40:00;100651.19;;;15.44;68.44
5522;BME280;2783;48.730;8.006;2023-03-20T09:50:39;100650.41;;;16.41;64.64
5522;BME280;2783;48.730;8.006;2023-03-20T09:53:17;100642.72;;;17.44;63.79
5522;BME280;2783;48.730;8.006;2023-03-20T09:55:44;100649.13;;;18.75;57.85
5522;BME280;2783;48.730;8.006;2023-03-20T09:58:29;100644.19;;;18.98;52.86
5522;BME280;2783;48.730;8.006;2023-03-20T10:00:56;100642.00;;;18.74;52.95
5522;BME280;2783;48.730;8.006;2023-03-20T10:03:46;100639.50;;;18.38;52.88
5522;BME280;2783;48.730;8.006;2023-03-20T10:06:14;100642.31;;;18.02;54.83
5522;BME280;2783;48.730;8.006;2023-03-20T10:08:40;100643.38;;;18.00;55.29
5522;BME280;2783;48.730;8.006;2023-03-20T10:16:27;100630.31;;;17.41;56.42
5522;BME280;2783;48.730;8.006;2023-03-20T10:21:35;100618.44;;;17.79;56.02
5522;BME280;2783;48.730;8.006;2023-03-20T10:24:03;100619.16;;;18.00;54.35
5522;BME280;2783;48.730;8.006;2023-03-20T10:26:30;100618.63;;;18.26;53.87
5522;BME280;2783;48.730;8.006;2023-03-20T10:28:58;100622.28;;;18.25;53.17
5522;BME280;2783;48.730;8.006;2023-03-20T10:34:12;100625.47;;;19.42;50.02
5522;BME280;2783;48.730;8.006;2023-03-20T10:41:41;100625.25;;;21.29;46.59
5522;BME280;2783;48.730;8.006;2023-03-20T10:44:09;100615.28;;;21.69;47.25
5522;BME280;2783;48.730;8.006;2023-03-20T10:46:42;100620.41;;;20.93;46.50
5522;BME280;2783;48.730;8.006;2023-03-20T10:49:13;100624.22;;;20.49;47.86
5522;BME280;2783;48.730;8.006;2023-03-20T10:51:51;100625.69;;;19.97;49.02
5522;BME280;2783;48.730;8.006;2023-03-20T10:54:23;100621.66;;;19.90;49.13
5522;BME280;2783;48.730;8.006;2023-03-20T10:56:51;100617.59;;;19.53;49.57
5522;BME280;2783;48.730;8.006;2023-03-20T11:02:08;100616.72;;;19.07;49.88
5522;BME280;2783;48.730;8.006;2023-03-20T11:04:33;100620.47;;;18.89;50.62
5522;BME280;2783;48.730;8.006;2023-03-20T11:09:34;100614.88;;;18.92;53.24
5522;BME280;2783;48.730;8.006;2023-03-20T11:12:00;100607.81;;;19.66;54.01
5522;BME280;2783;48.730;8.006;2023-03-20T11:14:27;100602.31;;;20.53;50.86
5522;BME280;2783;48.730;8.006;2023-03-20T11:16:56;100598.16;;;21.17;47.65
5522;BME280;2783;48.730;8.006;2023-03-20T11:19:24;100607.50;;;20.70;46.89
5522;BME280;2783;48.730;8.006;2023-03-20T11:22:00;100597.03;;;21.07;47.55
5522;BME280;2783;48.730;8.006;2023-03-20T11:27:04;100593.59;;;19.92;48.94
5522;BME280;2783;48.730;8.006;2023-03-20T11:29:30;100600.59;;;19.37;52.08
5522;BME280;2783;48.730;8.006;2023-03-20T11:32:21;100596.28;;;18.88;52.16
5522;BME280;2783;48.730;8.006;2023-03-20T11:34:47;100599.31;;;18.33;53.51
5522;BME280;2783;48.730;8.006;2023-03-20T11:37:33;100597.16;;;17.92;56.22
5522;BME280;2783;48.730;8.006;2023-03-20T11:40:09;100600.41;;;17.81;56.08
5522;BME280;2783;48.730;8.006;2023-03-20T11:42:37;100592.97;;;17.86;56.25
5522;BME280;2783;48.730;8.006;2023-03-20T11:45:04;100588.41;;;18.36;55.15
5522;BME280;2783;48.730;8.006;2023-03-20T11:47:31;100593.84;;;18.68;51.77
5522;BME280;2783;48.730;8.006;2023-03-20T11:49:58;100592.69;;;18.72;52.15
5522;BME280;2783;48.730;8.006;2023-03-20T11:52:25;100587.69;;;19.42;51.77
5522;BME280;2783;48.730;8.006;2023-03-20T11:54:54;100583.72;;;19.77;49.12
5522;BME280;2783;48.730;8.006;2023-03-20T12:00:00;100583.66;;;19.49;48.85
5522;BME280;2783;48.730;8.006;2023-03-20T12:02:25;100585.94;;;19.41;48.52
5522;BME280;2783;48.730;8.006;2023-03-20T12:04:51;100580.09;;;20.06;48.38
5522;BME280;2783;48.730;8.006;2023-03-20T12:07:21;100575.22;;;21.74;44.92
5522;BME280;2783;48.730;8.006;2023-03-20T12:09:51;100570.38;;;22.42;43.46
5522;BME280;2783;48.730;8.006;2023-03-20T12:12:38;100573.19;;;22.40;42.25
5522;BME280;2783;48.730;8.006;2023-03-20T12:17:41;100557.31;;;21.71;42.98
5522;BME280;2783;48.730;8.006;2023-03-20T12:22:39;100557.72;;;20.46;43.83
5522;BME280;2783;48.730;8.006;2023-03-20T12:27:37;100551.91;;;19.68;46.11
5522;BME280;2783;48.730;8.006;2023-03-20T12:30:15;100546.81;;;19.34;47.67
5522;BME280;2783;48.730;8.006;2023-03-20T12:32:51;100543.44;;;19.15;46.61
5522;BME280;2783;48.730;8.006;2023-03-20T12:35:28;100545.31;;;18.99;48.63
5522;BME280;2783;48.730;8.006;2023-03-20T12:37:54;100539.59;;;18.89;48.37
5522;BME280;2783;48.730;8.006;2023-03-20T12:40:20;100535.59;;;18.81;48.98
5522;BME280;2783;48.730;8.006;2023-03-20T12:42:56;100536.91;;;18.43;47.64
5522;BME280;2783;48.730;8.006;2023-03-20T12:45:39;100539.88;;;18.05;48.43
5522;BME280;2783;48.730;8.006;2023-03-20T12:50:54;100533.19;;;17.64;49.98
5522;BME280;2783;48.730;8.006;2023-03-20T12:53:39;100527.09;;;17.61;50.21
5522;BME280;2783;48.730;8.006;2023-03-20T12:58:47;100526.63;;;17.53;50.05
5522;BME280;2783;48.730;8.006;2023-03-20T13:01:20;100521.81;;;17.75;51.72
5522;BME280;2783;48.730;8.006;2023-03-20T13:06:40;100514.28;;;17.81;51.58
5522;BME280;2783;48.730;8.006;2023-03-20T13:16:50;100506.63;;;17.74;51.36
5522;BME280;2783;48.730;8.006;2023-03-20T13:19:28;100504.50;;;17.80;50.54
5522;BME280;2783;48.730;8.006;2023-03-20T13:22:18;100498.19;;;17.97;50.96
5522;BME280;2783;48.730;8.006;2023-03-20T13:24:47;100498.94;;;17.83;50.15
5522;BME280;2783;48.730;8.006;2023-03-20T13:29:44;100502.44;;;17.68;50.79
5522;BME280;2783;48.730;8.006;2023-03-20T13:42:31;100489.88;;;18.64;46.60
5522;BME280;2783;48.730;8.006;2023-03-20T13:45:01;100484.47;;;18.79;48.07
5522;BME280;2783;48.730;8.006;2023-03-20T13:47:29;100477.31;;;18.78;47.45
5522;BME280;2783;48.730;8.006;2023-03-20T13:50:04;100478.63;;;19.16;47.74
5522;BME280;2783;48.730;8.006;2023-03-20T13:52:36;100479.44;;;19.32;48.02
5522;BME280;2783;48.730;8.006;2023-03-20T13:57:52;100485.38;;;19.23;47.68
5522;BME280;2783;48.730;8.006;2023-03-20T14:00:24;100477.91;;;19.13;47.84
5522;BME280;2783;48.730;8.006;2023-03-20T14:05:18;100470.31;;;18.76;49.02
5522;BME280;2783;48.730;8.006;2023-03-20T14:07:46;100471.28;;;18.59;49.62
5522;BME280;2783;48.730;8.006;2023-03-20T14:12:55;100461.72;;;18.54;48.26
5522;BME280;2783;48.730;8.006;2023-03-20T14:15:21;100460.78;;;18.23;49.39
5522;BME280;2783;48.730;8.006;2023-03-20T14:17:50;100450.75;;;18.57;49.32
5522;BME280;2783;48.730;8.006;2023-03-20T14:20:21;100459.19;;;18.66;50.67
5522;BME280;2783;48.730;8.006;2023-03-20T14:22:52;100447.59;;;18.80;48.77
5522;BME280;2783;48.730;8.006;2023-03-20T14:25:18;100461.81;;;18.68;47.44
5522;BME280;2783;48.730;8.006;2023-03-20T14:27:58;100449.53;;;18.78;48.87
5522;BME280;2783;48.730;8.006;2023-03-20T14:35:42;100458.28;;;18.52;46.83
5522;BME280;2783;48.730;8.006;2023-03-20T14:38:17;100460.78;;;18.55;48.42
5522;BME280;2783;48.730;8.006;2023-03-20T14:40:58;100465.97;;;18.26;48.85
5522;BME280;2783;48.730;8.006;2023-03-20T14:43:29;100459.19;;;18.19;48.53
5522;BME280;2783;48.730;8.006;2023-03-20T14:46:01;100469.19;;;18.17;49.06
5522;BME280;2783;48.730;8.006;2023-03-20T14:48:29;100459.88;;;17.92;48.61
5522;BME280;2783;48.730;8.006;2023-03-20T14:53:38;100469.44;;;17.65;50.15
5522;BME280;2783;48.730;8.006;2023-03-20T14:56:13;100465.66;;;17.69;51.35
5522;BME280;2783;48.730;8.006;2023-03-20T15:01:14;100459.91;;;17.59;52.75
5522;BME280;2783;48.730;8.006;2023-03-20T15:03:40;100453.56;;;17.60;50.71
5522;BME280;2783;48.730;8.006;2023-03-20T15:06:06;100452.78;;;17.58;50.40
5522;BME280;2783;48.730;8.006;2023-03-20T15:08:34;100448.53;;;17.37;49.81
5522;BME280;2783;48.730;8.006;2023-03-20T15:11:08;100459.81;;;17.44;50.41
5522;BME280;2783;48.730;8.006;2023-03-20T15:13:34;100457.78;;;17.49;51.46
5522;BME280;2783;48.730;8.006;2023-03-20T15:18:34;100454.06;;;17.51;51.17
5522;BME280;2783;48.730;8.006;2023-03-20T15:21:00;100452.16;;;17.53;51.27
5522;BME280;2783;48.730;8.006;2023-03-20T15:23:25;100449.16;;;17.25;50.31
5522;BME280;2783;48.730;8.006;2023-03-20T15:25:50;100454.53;;;17.25;51.63
5522;BME280;2783;48.730;8.006;2023-03-20T15:28:18;100459.91;;;17.42;51.74
5522;BME280;2783;48.730;8.006;2023-03-20T15:30:44;100455.97;;;17.32;50.56